sensor_id;sensor_type;location;lat;lon;timestamp;P1;durP1;ratioP1;P2;durP2;ratioP2
75516;SDS011;64097;52.548;13.406;2023-04-01T00:02:19;1.70;;;1.60;;
75516;SDS011;64097;52.548;13.406;2023-04-01T00:04:44;2.60;;;1.83;;
75516;SDS011;64097;52.548;13.406;2023-04-01T00:07:10;1.70;;;1.50;;
75516;SDS011;64097;52.548;13.406;2023-04-01T00:09:36;2.55;;;1.73;;
75516;SDS011;64097;52.548;13.406;2023-04-01T00:12:02;2.53;;;1.95;;
75516;SDS011;64097;52.548;13.406;2023-04-01T00:14:28;1.60;;;1.50;;
75516;SDS011;64097;52.548;13.406;2023-04-01T00:16:54;2.03;;;1.75;;
75516;SDS011;64097;52.548;13.406;2023-04-01T00:19:20;2.08;;;1.50;;
75516;SDS011;64097;52.548;13.406;2023-04-01T00:21:46;2.13;;;1.70;;
75516;SDS011;64097;52.548;13.406;2023-04-01T00:24:13;1.73;;;1.60;;
75516;SDS011;64097;52.548;13.406;2023-04-01T00:26:39;2.97;;;1.73;;
75516;SDS011;64097;52.548;13.406;2023-04-01T00:29:07;1.77;;;1.30;;
75516;SDS011;64097;52.548;13.406;2023-04-01T00:31:33;2.20;;;1.40;;
75516;SDS011;64097;52.548;13.406;2023-04-01T00:33:59;1.40;;;1.30;;
75516;SDS011;64097;52.548;13.406;2023-04-01T00:36:25;2.13;;;1.40;;
75516;SDS011;64097;52.548;13.406;2023-04-01T00:38:50;2.22;;;1.65;;
75516;SDS011;64097;52.548;13.406;2023-04-01T00:41:16;1.98;;;1.40;;
75516;SDS011;64097;52.548;13.406;2023-04-01T00:43:45;2.10;;;1.52;;
75516;SDS011;64097;52.548;13.406;2023-04-01T00:46:12;4.68;;;2.05;;
75516;SDS011;64097;52.548;13.406;2023-04-01T00:48:42;2.28;;;1.40;;
75516;SDS011;64097;52.548;13.406;2023-04-01T00:51:22;2.65;;;1.60;;
75516;SDS011;64097;52.548;13.406;2023-04-01T00:53:51;2.13;;;1.55;;
75516;SDS011;64097;52.548;13.406;2023-04-01T00:56:20;2.65;;;1.50;;
75516;SDS011;64097;52.548;13.406;2023-04-01T00:59:00;1.65;;;1.20;;
75516;SDS011;64097;52.548;13.406;2023-04-01T01:01:29;2.00;;;1.55;;
75516;SDS011;64097;52.548;13.406;2023-04-01T01:03:56;2.22;;;1.40;;
75516;SDS011;64097;52.548;13.406;2023-04-01T01:17:24;1.90;;;1.23;;
75516;SDS011;64097;52.548;13.406;2023-04-01T01:20:15;2.40;;;1.48;;
75516;SDS011;64097;52.548;13.406;2023-04-01T01:31:54;2.00;;;1.40;;
75516;SDS011;64097;52.548;13.406;2023-04-01T01:37:20;2.17;;;1.50;;
75516;SDS011;64097;52.548;13.406;2023-04-01T01:39:54;3.25;;;1.67;;
75516;SDS011;64097;52.548;13.406;2023-04-01T01:42:23;2.47;;;1.58;;
75516;SDS011;64097;52.548;13.406;2023-04-01T01:44:51;2.58;;;1.60;;
75516;SDS011;64097;52.548;13.406;2023-04-01T01:47:18;2.15;;;1.42;;
75516;SDS011;64097;52.548;13.406;2023-04-01T01:49:46;2.17;;;1.25;;
75516;SDS011;64097;52.548;13.406;2023-04-01T01:52:13;3.53;;;2.03;;
75516;SDS011;64097;52.548;13.406;2023-04-01T01:54:49;2.72;;;1.60;;
75516;SDS011;64097;52.548;13.406;2023-04-01T01:57:22;2.95;;;1.60;;
75516;SDS011;64097;52.548;13.406;2023-04-01T01:59:51;2.20;;;1.58;;
75516;SDS011;64097;52.548;13.406;2023-04-01T02:02:21;2.67;;;1.60;;
75516;SDS011;64097;52.548;13.406;2023-04-01T02:04:48;2.22;;;1.45;;
75516;SDS011;64097;52.548;13.406;2023-04-01T02:07:20;2.33;;;1.50;;
75516;SDS011;64097;52.548;13.406;2023-04-01T02:09:50;2.60;;;1.40;;
75516;SDS011;64097;52.548;13.406;2023-04-01T02:12:16;2.92;;;1.52;;
75516;SDS011;64097;52.548;13.406;2023-04-01T02:17:20;1.77;;;1.45;;
75516;SDS011;64097;52.548;13.406;2023-04-01T02:22:23;2.17;;;1.30;;
75516;SDS011;64097;52.548;13.406;2023-04-01T02:24:56;2.28;;;1.40;;
75516;SDS011;64097;52.548;13.406;2023-04-01T02:27:26;2.78;;;1.23;;
75516;SDS011;64097;52.548;13.406;2023-04-01T02:29:51;2.15;;;1.30;;
75516;SDS011;64097;52.548;13.406;2023-04-01T02:32:18;2.03;;;1.17;;
75516;SDS011;64097;52.548;13.406;2023-04-01T02:34:45;2.28;;;1.35;;
75516;SDS011;64097;52.548;13.406;2023-04-01T02:37:13;2.55;;;1.30;;
75516;SDS011;64097;52.548;13.406;2023-04-01T02:39:40;2.15;;;1.20;;
75516;SDS011;64097;52.548;13.406;2023-04-01T02:42:07;2.03;;;1.20;;
75516;SDS011;64097;52.548;13.406;2023-04-01T02:44:33;2.03;;;1.20;;
75516;SDS011;64097;52.548;13.406;2023-04-01T02:46:59;2.25;;;1.40;;
75516;SDS011;64097;52.548;13.406;2023-04-01T02:49:24;2.20;;;1.42;;
75516;SDS011;64097;52.548;13.406;2023-04-01T02:51:50;4.40;;;1.50;;
75516;SDS011;64097;52.548;13.406;2023-04-01T02:54:17;2.08;;;1.23;;
75516;SDS011;64097;52.548;13.406;2023-04-01T02:56:43;3.25;;;1.60;;
75516;SDS011;64097;52.548;13.406;2023-04-01T02:59:08;2.75;;;1.45;;
75516;SDS011;64097;52.548;13.406;2023-04-01T03:01:34;2.55;;;1.13;;
75516;SDS011;64097;52.548;13.406;2023-04-01T03:04:00;3.47;;;1.30;;
75516;SDS011;64097;52.548;13.406;2023-04-01T03:06:26;2.28;;;1.38;;
75516;SDS011;64097;52.548;13.406;2023-04-01T03:08:51;2.53;;;1.30;;
75516;SDS011;64097;52.548;13.406;2023-04-01T03:11:17;2.33;;;1.30;;
75516;SDS011;64097;52.548;13.406;2023-04-01T03:13:43;2.13;;;1.23;;
75516;SDS011;64097;52.548;13.406;2023-04-01T03:16:08;3.03;;;1.45;;
75516;SDS011;64097;52.548;13.406;2023-04-01T03:18:34;2.17;;;1.40;;
75516;SDS011;64097;52.548;13.406;2023-04-01T03:21:17;2.35;;;1.20;;
75516;SDS011;64097;52.548;13.406;2023-04-01T03:23:46;1.75;;;1.33;;
75516;SDS011;64097;52.548;13.406;2023-04-01T03:26:12;1.80;;;1.48;;
75516;SDS011;64097;52.548;13.406;2023-04-01T03:28:38;1.80;;;1.23;;
75516;SDS011;64097;52.548;13.406;2023-04-01T03:31:04;2.08;;;1.13;;
75516;SDS011;64097;52.548;13.406;2023-04-01T03:33:30;1.80;;;1.20;;
75516;SDS011;64097;52.548;13.406;2023-04-01T03:35:57;2.33;;;1.50;;
75516;SDS011;64097;52.548;13.406;2023-04-01T03:38:23;2.20;;;1.45;;
75516;SDS011;64097;52.548;13.406;2023-04-01T03:40:48;2.70;;;1.50;;
75516;SDS011;64097;52.548;13.406;2023-04-01T03:43:15;1.95;;;1.40;;
75516;SDS011;64097;52.548;13.406;2023-04-01T03:45:45;2.53;;;1.60;;
75516;SDS011;64097;52.548;13.406;2023-04-01T03:48:15;2.92;;;1.95;;
75516;SDS011;64097;52.548;13.406;2023-04-01T03:50:41;3.70;;;1.92;;
75516;SDS011;64097;52.548;13.406;2023-04-01T03:53:07;2.50;;;1.58;;
75516;SDS011;64097;52.548;13.406;2023-04-01T03:55:35;2.95;;;1.70;;
75516;SDS011;64097;52.548;13.406;2023-04-01T03:58:01;1.95;;;1.67;;
75516;SDS011;64097;52.548;13.406;2023-04-01T04:00:28;2.25;;;1.50;;
75516;SDS011;64097;52.548;13.406;2023-04-01T04:02:54;2.35;;;1.83;;
75516;SDS011;64097;52.548;13.406;2023-04-01T04:05:22;1.88;;;1.55;;
75516;SDS011;64097;52.548;13.406;2023-04-01T04:07:48;2.65;;;1.60;;
75516;SDS011;64097;52.548;13.406;2023-04-01T04:10:14;2.97;;;1.63;;
75516;SDS011;64097;52.548;13.406;2023-04-01T04:12:40;2.90;;;1.45;;
75516;SDS011;64097;52.548;13.406;2023-04-01T04:15:06;3.85;;;1.85;;
75516;SDS011;64097;52.548;13.406;2023-04-01T04:17:32;2.20;;;1.40;;
75516;SDS011;64097;52.548;13.406;2023-04-01T04:19:58;2.70;;;1.45;;
75516;SDS011;64097;52.548;13.406;2023-04-01T04:22:23;2.13;;;1.25;;
75516;SDS011;64097;52.548;13.406;2023-04-01T04:24:49;2.65;;;1.50;;
75516;SDS011;64097;52.548;13.406;2023-04-01T04:27:15;2.75;;;1.83;;
75516;SDS011;64097;52.548;13.406;2023-04-01T04:29:42;2.80;;;1.60;;
75516;SDS011;64097;52.548;13.406;2023-04-01T04:32:07;2.17;;;1.58;;
75516;SDS011;64097;52.548;13.406;2023-04-01T04:34:33;3.15;;;1.75;;
75516;SDS011;64097;52.548;13.406;2023-04-01T04:36:59;2.88;;;1.80;;
75516;SDS011;64097;52.548;13.406;2023-04-01T04:39:25;4.13;;;2.08;;
75516;SDS011;64097;52.548;13.406;2023-04-01T04:41:51;2.00;;;1.67;;
75516;SDS011;64097;52.548;13.406;2023-04-01T04:44:16;2.22;;;1.30;;
75516;SDS011;64097;52.548;13.406;2023-04-01T04:46:42;2.85;;;1.92;;
75516;SDS011;64097;52.548;13.406;2023-04-01T04:49:09;2.78;;;1.77;;
75516;SDS011;64097;52.548;13.406;2023-04-01T04:51:35;2.65;;;1.80;;
75516;SDS011;64097;52.548;13.406;2023-04-01T04:54:04;3.60;;;2.03;;
75516;SDS011;64097;52.548;13.406;2023-04-01T04:56:30;2.17;;;1.67;;
75516;SDS011;64097;52.548;13.406;2023-04-01T04:58:57;2.13;;;1.60;;
75516;SDS011;64097;52.548;13.406;2023-04-01T05:01:23;2.95;;;1.90;;
75516;SDS011;64097;52.548;13.406;2023-04-01T05:03:49;2.67;;;1.77;;
75516;SDS011;64097;52.548;13.406;2023-04-01T05:06:15;2.83;;;1.80;;
75516;SDS011;64097;52.548;13.406;2023-04-01T05:08:42;2.75;;;2.10;;
75516;SDS011;64097;52.548;13.406;2023-04-01T05:11:09;3.10;;;1.75;;
75516;SDS011;64097;52.548;13.406;2023-04-01T05:13:40;2.15;;;1.70;;
75516;SDS011;64097;52.548;13.406;2023-04-01T05:16:08;3.55;;;1.63;;
75516;SDS011;64097;52.548;13.406;2023-04-01T05:18:42;3.45;;;2.00;;
75516;SDS011;64097;52.548;13.406;2023-04-01T05:21:08;3.42;;;2.08;;
75516;SDS011;64097;52.548;13.406;2023-04-01T05:23:35;2.90;;;2.10;;
75516;SDS011;64097;52.548;13.406;2023-04-01T05:26:10;2.42;;;1.83;;
75516;SDS011;64097;52.548;13.406;2023-04-01T05:28:37;3.15;;;1.83;;
75516;SDS011;64097;52.548;13.406;2023-04-01T05:31:03;3.08;;;2.00;;
75516;SDS011;64097;52.548;13.406;2023-04-01T05:33:31;2.25;;;1.92;;
75516;SDS011;64097;52.548;13.406;2023-04-01T05:35:57;3.63;;;1.85;;
75516;SDS011;64097;52.548;13.406;2023-04-01T05:38:31;2.35;;;1.83;;
75516;SDS011;64097;52.548;13.406;2023-04-01T05:41:01;3.58;;;2.17;;
75516;SDS011;64097;52.548;13.406;2023-04-01T05:43:27;3.97;;;2.60;;
75516;SDS011;64097;52.548;13.406;2023-04-01T05:45:54;3.60;;;2.30;;
75516;SDS011;64097;52.548;13.406;2023-04-01T05:48:20;2.83;;;2.38;;
75516;SDS011;64097;52.548;13.406;2023-04-01T05:50:46;3.35;;;2.10;;
75516;SDS011;64097;52.548;13.406;2023-04-01T05:53:12;3.95;;;2.22;;
75516;SDS011;64097;52.548;13.406;2023-04-01T05:55:37;3.22;;;2.00;;
75516;SDS011;64097;52.548;13.406;2023-04-01T05:58:03;5.97;;;2.67;;
75516;SDS011;64097;52.548;13.406;2023-04-01T06:00:29;3.72;;;2.58;;
75516;SDS011;64097;52.548;13.406;2023-04-01T06:02:55;4.15;;;2.22;;
75516;SDS011;64097;52.548;13.406;2023-04-01T06:05:24;4.40;;;2.50;;
75516;SDS011;64097;52.548;13.406;2023-04-01T06:07:57;2.42;;;1.67;;
75516;SDS011;64097;52.548;13.406;2023-04-01T06:10:33;2.60;;;1.80;;
75516;SDS011;64097;52.548;13.406;2023-04-01T06:27:02;4.28;;;2.47;;
75516;SDS011;64097;52.548;13.406;2023-04-01T06:35:02;3.38;;;2.10;;
75516;SDS011;64097;52.548;13.406;2023-04-01T06:37:38;2.47;;;1.92;;
75516;SDS011;64097;52.548;13.406;2023-04-01T06:51:20;2.78;;;2.17;;
75516;SDS011;64097;52.548;13.406;2023-04-01T06:54:03;3.15;;;2.30;;
75516;SDS011;64097;52.548;13.406;2023-04-01T06:56:34;4.82;;;3.03;;
75516;SDS011;64097;52.548;13.406;2023-04-01T06:59:09;4.10;;;2.88;;
75516;SDS011;64097;52.548;13.406;2023-04-01T07:02:14;4.13;;;2.50;;
75516;SDS011;64097;52.548;13.406;2023-04-01T07:04:45;4.10;;;2.60;;
75516;SDS011;64097;52.548;13.406;2023-04-01T07:09:50;3.58;;;2.70;;
75516;SDS011;64097;52.548;13.406;2023-04-01T07:14:55;3.78;;;2.95;;
75516;SDS011;64097;52.548;13.406;2023-04-01T07:17:25;3.45;;;2.45;;
75516;SDS011;64097;52.548;13.406;2023-04-01T07:20:10;5.47;;;3.70;;
75516;SDS011;64097;52.548;13.406;2023-04-01T07:22:47;5.05;;;4.00;;
75516;SDS011;64097;52.548;13.406;2023-04-01T07:25:33;4.88;;;4.10;;
75516;SDS011;64097;52.548;13.406;2023-04-01T07:28:04;3.53;;;2.90;;
75516;SDS011;64097;52.548;13.406;2023-04-01T07:36:47;4.38;;;3.38;;
75516;SDS011;64097;52.548;13.406;2023-04-01T07:39:37;4.00;;;3.60;;
75516;SDS011;64097;52.548;13.406;2023-04-01T07:50:32;2.85;;;2.53;;
75516;SDS011;64097;52.548;13.406;2023-04-01T07:53:09;2.50;;;2.30;;
75516;SDS011;64097;52.548;13.406;2023-04-01T07:55:51;2.50;;;2.30;;
75516;SDS011;64097;52.548;13.406;2023-04-01T08:01:48;4.10;;;3.45;;
75516;SDS011;64097;52.548;13.406;2023-04-01T08:20:52;3.30;;;3.00;;
75516;SDS011;64097;52.548;13.406;2023-04-01T08:23:24;3.78;;;3.47;;
75516;SDS011;64097;52.548;13.406;2023-04-01T08:28:30;4.35;;;3.90;;
75516;SDS011;64097;52.548;13.406;2023-04-01T08:31:18;5.28;;;4.78;;
75516;SDS011;64097;52.548;13.406;2023-04-01T08:33:57;5.53;;;4.78;;
75516;SDS011;64097;52.548;13.406;2023-04-01T08:36:31;6.03;;;5.43;;
75516;SDS011;64097;52.548;13.406;2023-04-01T08:39:07;5.20;;;4.70;;
75516;SDS011;64097;52.548;13.406;2023-04-01T08:50:41;8.60;;;7.75;;
75516;SDS011;64097;52.548;13.406;2023-04-01T08:58:59;9.23;;;8.38;;
75516;SDS011;64097;52.548;13.406;2023-04-01T09:07:41;9.80;;;8.90;;
75516;SDS011;64097;52.548;13.406;2023-04-01T09:22:42;8.98;;;8.18;;
75516;SDS011;64097;52.548;13.406;2023-04-01T09:34:44;10.20;;;9.32;;
75516;SDS011;64097;52.548;13.406;2023-04-01T09:37:31;10.30;;;9.40;;
75516;SDS011;64097;52.548;13.406;2023-04-01T09:57:02;7.03;;;6.53;;
75516;SDS011;64097;52.548;13.406;2023-04-01T10:32:46;11.30;;;10.40;;
75516;SDS011;64097;52.548;13.406;2023-04-01T10:49:10;9.35;;;8.55;;
75516;SDS011;64097;52.548;13.406;2023-04-01T11:00:18;9.45;;;8.75;;
75516;SDS011;64097;52.548;13.406;2023-04-01T11:11:03;8.55;;;7.90;;
75516;SDS011;64097;52.548;13.406;2023-04-01T11:30:53;9.35;;;8.65;;
75516;SDS011;64097;52.548;13.406;2023-04-01T11:33:18;10.10;;;9.30;;
75516;SDS011;64097;52.548;13.406;2023-04-01T11:39:01;9.98;;;9.27;;
75516;SDS011;64097;52.548;13.406;2023-04-01T11:41:51;11.13;;;10.25;;
75516;SDS011;64097;52.548;13.406;2023-04-01T11:52:18;9.38;;;8.60;;
75516;SDS011;64097;52.548;13.406;2023-04-01T11:55:10;10.65;;;9.75;;
75516;SDS011;64097;52.548;13.406;2023-04-01T11:58:15;10.40;;;9.55;;
75516;SDS011;64097;52.548;13.406;2023-04-01T12:08:46;9.38;;;8.65;;
75516;SDS011;64097;52.548;13.406;2023-04-01T12:25:21;9.70;;;9.00;;
75516;SDS011;64097;52.548;13.406;2023-04-01T12:36:59;10.52;;;9.55;;
75516;SDS011;64097;52.548;13.406;2023-04-01T12:55:59;12.57;;;11.48;;
75516;SDS011;64097;52.548;13.406;2023-04-01T13:28:28;11.10;;;10.20;;
